Kaunas, Lithuania

2:29 AM EEST on July 27, 2017 (GMT +0300)
M. Mazvydo g. | | Change Station

Elev 95 ft 54.91 °N, 23.89 °E | Updated 37 seconds ago

Clear
Clear
58.9 °F
Feels Like 58.9 °F
N
3.1
Wind Variable Wind from SW
Gusts 6.1 mph

Today
High -- | Low -- °F
--% Chance of Precip.
Yesterday
High -- | Low -- °F
Precip. -- in
Pressure 29.59 in
Visibility 5.6 miles
Clouds Mostly Cloudy 4000 ft
Dew Point 55 °F
Humidity 83%
Rainfall 0.20 in
Snow Depth Not available.
5:25 AM 9:35 PM
Waxing Crescent, 16% visible
METAR EYKA 262320Z 19003KT 140V240 9000 BKN040 15/13 Q1002
Pressure 29.59 in
Visibility 5.6 miles
Clouds Mostly Cloudy 4000 ft
Dew Point 55 °F
Humidity 83%
Rainfall 0.20 in
Snow Depth Not available.
5:25 AM 9:35 PM
Waxing Crescent, 16% visible
METAR EYKA 262320Z 19003KT 140V240 9000 BKN040 15/13 Q1002

Get Severe Weather Alerts

Thanks for signing up!

Be on the lookout for a verification email in your inbox.

You'll start receiving the daily forecast at 6 AM.

×

10-Day Weather Forecast

×

Almanac

Astronomy

Jul. 27, 2017 Rise Set
Actual Time
Civil Twilight
Nautical Twilight
Astronomical Twilight
Moon
Length of Visible Light
Length of Day
Tomorrow will be .
, % of the Moon is Illuminated

Today's Extremes

Country Highs Country Lows

Community

WunderPhotos

Category 6

Welcome to Category 6. This is the collective home for Weather Underground's featured writeups by Dr. Jeff Masters (right), Bob Henson (left), Chris Burt, and other regular contributors.

Nearby

Air Quality

  Air Quality AQ Index Pollutant
Not available.

Snow Depth

Station Depth Elevation

Earthquake Activity

City Distance Mag. Time & Date
Minimum magnitude displayed is 2.5.

Coastal Water Temperatures

Place Temperature

Stations

Nearby Weather Stations

Station Location Temp. Windchill Dew Point Humidity Wind Precip. Elev Updated Type